createdAt,value
2019-06-08T00:02:53.001Z,18.60
2019-06-08T00:07:03.404Z,18.60
2019-06-08T00:11:14.984Z,18.40
2019-06-08T00:15:25.307Z,18.40
2019-06-08T00:19:35.521Z,18.30
2019-06-08T00:23:45.716Z,18.20
2019-06-08T00:27:56.044Z,18.20
2019-06-08T00:32:06.545Z,18.10
2019-06-08T00:36:16.851Z,18.00
2019-06-08T00:40:27.199Z,18.00
2019-06-08T00:44:37.384Z,17.90
2019-06-08T00:48:47.618Z,17.80
2019-06-08T00:52:57.960Z,17.60
2019-06-08T00:57:08.283Z,17.60
2019-06-08T01:01:20.793Z,17.50
2019-06-08T01:05:30.451Z,17.40
2019-06-08T01:09:40.817Z,17.30
2019-06-08T01:13:51.156Z,17.30
2019-06-08T01:18:03.691Z,17.30
2019-06-08T01:22:13.375Z,17.30
2019-06-08T01:26:23.962Z,17.40
2019-06-08T01:30:34.241Z,17.30
2019-06-08T01:34:44.480Z,17.20
2019-06-08T01:38:54.720Z,17.10
2019-06-08T01:43:05.048Z,17.00
2019-06-08T01:47:15.366Z,16.90
2019-06-08T01:51:26.534Z,16.80
2019-06-08T01:55:36.764Z,16.80
2019-06-08T01:59:46.954Z,16.70
2019-06-08T02:03:57.236Z,16.60
2019-06-08T02:08:07.455Z,16.60
2019-06-08T02:12:17.681Z,16.50
2019-06-08T02:16:29.622Z,16.40
2019-06-08T02:20:39.893Z,16.50
2019-06-08T02:24:50.227Z,16.50
2019-06-08T02:29:00.452Z,16.50
2019-06-08T02:33:10.809Z,16.50
2019-06-08T02:37:21.087Z,16.40
2019-06-08T02:41:32.667Z,16.30
2019-06-08T02:45:43.247Z,16.30
2019-06-08T02:49:53.597Z,16.30
2019-06-08T02:54:04.098Z,16.40
2019-06-08T02:58:14.732Z,16.40
2019-06-08T03:02:29.636Z,16.40
2019-06-08T03:06:41.607Z,16.30
2019-06-08T03:10:52.687Z,16.40
2019-06-08T03:15:04.433Z,16.30
2019-06-08T03:19:21.513Z,16.30
2019-06-08T03:23:26.475Z,16.30
2019-06-08T03:27:37.301Z,16.20
2019-06-08T03:31:55.581Z,16.30
2019-06-08T03:36:00.737Z,16.40
2019-06-08T03:40:11.039Z,16.40
2019-06-08T03:44:21.372Z,16.40
2019-06-08T03:48:31.609Z,16.30
2019-06-08T03:52:42.509Z,16.60
2019-06-08T03:56:53.803Z,17.00
2019-06-08T04:01:04.081Z,17.20
2019-06-08T04:05:14.344Z,17.10
2019-06-08T04:09:24.679Z,17.40
2019-06-08T04:13:34.959Z,17.80
2019-06-08T04:17:46.403Z,17.70
2019-06-08T04:21:56.589Z,17.60
2019-06-08T04:26:06.911Z,17.80
2019-06-08T04:30:17.558Z,18.00
2019-06-08T04:34:27.794Z,17.70
2019-06-08T04:38:39.017Z,17.40
2019-06-08T04:42:50.963Z,17.20
2019-06-08T04:47:01.475Z,17.00
2019-06-08T04:51:11.770Z,17.00
2019-06-08T04:55:22.034Z,16.90
2019-06-08T04:59:32.242Z,16.90
2019-06-08T05:03:43.319Z,16.90
2019-06-08T05:07:53.642Z,17.20
2019-06-08T05:12:03.859Z,17.20
2019-06-08T05:16:14.076Z,17.10
2019-06-08T05:20:37.633Z,17.00
2019-06-08T05:24:36.131Z,17.00
2019-06-08T05:28:47.382Z,16.80
2019-06-08T05:32:57.732Z,16.80
2019-06-08T05:37:07.931Z,17.00
2019-06-08T05:41:18.201Z,17.10
2019-06-08T05:45:28.672Z,17.10
2019-06-08T05:49:39.733Z,17.00
2019-06-08T05:53:50.316Z,17.00
2019-06-08T05:58:00.525Z,17.10
2019-06-08T06:02:10.848Z,17.00
2019-06-08T06:06:21.094Z,16.90
2019-06-08T06:10:31.271Z,17.00
2019-06-08T06:14:42.534Z,17.00
2019-06-08T06:18:53.041Z,17.00
2019-06-08T06:23:03.379Z,16.90
2019-06-08T06:27:13.717Z,16.80
2019-06-08T06:31:24.084Z,17.00
2019-06-08T06:35:34.380Z,16.90
2019-06-08T06:39:45.854Z,17.00
2019-06-08T06:43:56.273Z,17.00
2019-06-08T06:48:06.501Z,16.90
2019-06-08T06:52:16.834Z,16.80
2019-06-08T06:56:27.141Z,16.80
2019-06-08T07:00:39.198Z,16.80
2019-06-08T07:04:52.136Z,16.90
2019-06-08T07:09:02.984Z,17.00
2019-06-08T07:13:13.402Z,17.10
2019-06-08T07:17:23.845Z,17.10
2019-06-08T07:21:41.740Z,17.10
2019-06-08T07:25:46.287Z,17.00
2019-06-08T07:29:56.671Z,17.10
2019-06-08T07:34:06.980Z,17.30
2019-06-08T07:38:17.278Z,17.40
2019-06-08T07:42:27.612Z,17.70
2019-06-08T07:46:37.814Z,18.30
2019-06-08T07:50:48.530Z,18.90
2019-06-08T07:54:59.100Z,19.50
2019-06-08T07:59:09.338Z,19.50
2019-06-08T08:03:19.576Z,19.10
2019-06-08T08:07:29.912Z,18.80
2019-06-08T08:11:40.302Z,18.90
2019-06-08T08:15:50.782Z,19.00
2019-06-08T08:20:00.971Z,19.20
2019-06-08T08:24:12.400Z,18.90
2019-06-08T08:28:22.639Z,18.40
2019-06-08T08:32:32.831Z,18.10
2019-06-08T08:36:43.155Z,18.50
2019-06-08T08:40:55.150Z,18.80
2019-06-08T08:45:09.024Z,18.90
2019-06-08T08:49:19.389Z,18.80
2019-06-08T08:53:29.645Z,18.40
2019-06-08T08:57:41.575Z,18.20
2019-06-08T09:01:52.860Z,18.00
2019-06-08T09:06:03.997Z,17.90
2019-06-08T09:10:14.619Z,17.80
2019-06-08T09:14:24.814Z,17.80
2019-06-08T09:18:37.353Z,17.80
2019-06-08T09:22:53.912Z,17.80
2019-06-08T09:27:00.934Z,17.80
2019-06-08T09:31:12.997Z,17.90
2019-06-08T09:35:22.638Z,18.00
2019-06-08T09:39:32.981Z,18.30
2019-06-08T09:43:43.324Z,18.40
2019-06-08T09:47:54.158Z,18.80
2019-06-08T09:52:08.247Z,19.10
2019-06-08T09:56:18.596Z,19.50
2019-06-08T10:00:29.859Z,19.70
2019-06-08T10:04:40.257Z,19.70
2019-06-08T10:08:51.384Z,19.50
2019-06-08T10:13:04.862Z,19.50
2019-06-08T10:17:13.793Z,19.60
2019-06-08T10:21:24.089Z,19.50
2019-06-08T10:25:34.434Z,19.60
2019-06-08T10:29:44.756Z,20.20
2019-06-08T10:33:56.207Z,20.10
2019-06-08T10:38:11.241Z,20.40
2019-06-08T10:42:18.706Z,20.80
2019-06-08T10:46:28.913Z,21.20
2019-06-08T10:50:39.101Z,21.70
2019-06-08T10:54:49.413Z,21.70
2019-06-08T10:59:01.610Z,22.00
2019-06-08T11:03:12.003Z,22.00
2019-06-08T11:07:22.296Z,22.10
2019-06-08T11:11:32.902Z,22.10
2019-06-08T11:15:43.188Z,22.00
2019-06-08T11:19:53.522Z,22.20
2019-06-08T11:24:14.397Z,22.60
2019-06-08T11:28:18.437Z,22.90
2019-06-08T11:32:27.847Z,23.00
2019-06-08T11:36:39.432Z,22.80
2019-06-08T11:40:50.869Z,22.60
2019-06-08T11:45:02.290Z,22.40
2019-06-08T11:49:15.058Z,22.60
2019-06-08T11:53:24.863Z,22.80
2019-06-08T11:57:37.308Z,22.60
2019-06-08T12:01:50.437Z,22.60
2019-06-08T12:06:00.363Z,22.50
2019-06-08T12:10:12.481Z,22.30
2019-06-08T12:14:22.537Z,22.50
2019-06-08T12:18:32.782Z,22.40
2019-06-08T12:22:43.016Z,22.40
2019-06-08T12:27:00.172Z,22.40
2019-06-08T12:31:05.139Z,22.50
2019-06-08T12:35:17.976Z,22.70
2019-06-08T12:39:28.176Z,22.60
2019-06-08T12:43:38.581Z,22.50
2019-06-08T12:47:48.936Z,22.40
2019-06-08T12:51:59.149Z,22.50
2019-06-08T12:56:11.732Z,22.80
2019-06-08T13:00:23.305Z,22.60
2019-06-08T13:04:33.645Z,22.60
2019-06-08T13:08:43.905Z,22.60
2019-06-08T13:12:54.173Z,22.20
2019-06-08T13:17:04.502Z,22.10
2019-06-08T13:21:31.047Z,22.50
2019-06-08T13:25:37.359Z,22.50
2019-06-08T13:29:39.399Z,22.50
2019-06-08T13:33:49.623Z,22.50
2019-06-08T13:37:59.936Z,22.40
2019-06-08T13:42:11.291Z,22.30
2019-06-08T13:46:23.540Z,22.40
2019-06-08T13:50:33.503Z,22.20
2019-06-08T13:54:43.714Z,22.00
2019-06-08T13:58:53.912Z,22.20
2019-06-08T14:03:08.249Z,22.30
2019-06-08T14:07:23.688Z,22.50
2019-06-08T14:11:29.894Z,22.50
2019-06-08T14:15:40.226Z,22.30
2019-06-08T14:19:51.648Z,22.10
2019-06-08T14:24:02.074Z,22.00
2019-06-08T14:28:12.308Z,22.00
2019-06-08T14:32:23.822Z,22.00
2019-06-08T14:36:34.148Z,21.90
2019-06-08T14:40:51.315Z,22.10
2019-06-08T14:44:57.844Z,22.10
2019-06-08T14:49:11.259Z,22.20
2019-06-08T14:53:22.952Z,22.10
2019-06-08T14:57:33.308Z,22.30
2019-06-08T15:01:44.253Z,22.60
2019-06-08T15:05:54.580Z,22.50
2019-06-08T15:10:09.757Z,22.50
2019-06-08T15:14:19.345Z,22.30
2019-06-08T15:18:30.457Z,22.20
2019-06-08T15:22:41.740Z,21.90
2019-06-08T15:26:51.954Z,22.20
2019-06-08T15:31:02.226Z,22.40
2019-06-08T15:35:12.667Z,22.50
2019-06-08T15:39:23.465Z,22.60
2019-06-08T15:43:37.056Z,22.70
2019-06-08T15:47:45.726Z,22.50
2019-06-08T15:51:57.925Z,22.40
2019-06-08T15:56:08.535Z,22.40
2019-06-08T16:00:18.968Z,22.50
2019-06-08T16:04:30.212Z,22.30
2019-06-08T16:08:40.531Z,22.20
2019-06-08T16:12:50.788Z,22.00
2019-06-08T16:17:01.031Z,21.90
2019-06-08T16:21:11.469Z,21.80
2019-06-08T16:25:21.761Z,21.60
2019-06-08T16:29:33.308Z,21.60
2019-06-08T16:33:44.384Z,21.50
2019-06-08T16:37:54.662Z,21.40
2019-06-08T16:42:05.019Z,21.40
2019-06-08T16:46:15.360Z,21.40
2019-06-08T16:50:25.703Z,21.50
2019-06-08T16:54:37.217Z,21.70
2019-06-08T16:58:47.849Z,21.70
2019-06-08T17:02:58.070Z,21.60
2019-06-08T17:07:08.521Z,21.60
2019-06-08T17:11:18.980Z,21.60
2019-06-08T17:15:30.177Z,21.70
2019-06-08T17:19:40.661Z,21.70
2019-06-08T17:23:51.100Z,21.60
2019-06-08T17:28:01.440Z,21.50
2019-06-08T17:32:11.675Z,21.50
2019-06-08T17:36:22.415Z,21.40
2019-06-08T17:40:33.845Z,21.40
2019-06-08T17:44:45.305Z,21.40
2019-06-08T17:48:55.495Z,21.30
2019-06-08T17:53:05.835Z,21.30
2019-06-08T17:57:16.176Z,21.20
2019-06-08T18:01:26.475Z,21.10
2019-06-08T18:05:39.385Z,21.10
2019-06-08T18:09:48.582Z,21.00
2019-06-08T18:13:59.729Z,20.90
2019-06-08T18:18:10.174Z,20.90
2019-06-08T18:22:20.407Z,20.80
2019-06-08T18:26:30.612Z,20.80
2019-06-08T18:30:43.183Z,20.70
2019-06-08T18:34:52.793Z,20.60
2019-06-08T18:39:04.581Z,20.50
2019-06-08T18:43:16.951Z,20.40
2019-06-08T18:47:27.380Z,20.40
2019-06-08T18:51:38.235Z,20.30
2019-06-08T18:55:50.544Z,20.20
2019-06-08T19:00:08.159Z,20.00
2019-06-08T19:04:13.233Z,19.90
2019-06-08T19:08:23.542Z,19.80
2019-06-08T19:12:33.869Z,19.70
2019-06-08T19:16:46.884Z,19.60
2019-06-08T19:20:57.665Z,19.50
2019-06-08T19:25:08.038Z,19.40
2019-06-08T19:29:19.448Z,19.30
2019-06-08T19:33:29.920Z,19.20
2019-06-08T19:37:40.172Z,19.20
2019-06-08T19:41:50.638Z,19.00
2019-06-08T19:46:00.966Z,18.80
2019-06-08T19:50:11.534Z,18.80
2019-06-08T19:54:21.826Z,18.70
2019-06-08T19:58:32.000Z,18.60
2019-06-08T20:02:42.698Z,18.40
2019-06-08T20:06:53.153Z,18.30
2019-06-08T20:11:03.465Z,18.30
2019-06-08T20:15:14.299Z,18.30
2019-06-08T20:19:24.523Z,18.20
2019-06-08T20:23:34.721Z,18.10
2019-06-08T20:27:45.344Z,18.10
2019-06-08T20:31:58.192Z,18.10
2019-06-08T20:36:08.824Z,18.00
2019-06-08T20:40:19.088Z,17.90
2019-06-08T20:44:30.329Z,18.00
2019-06-08T20:48:40.625Z,18.00
2019-06-08T20:52:52.251Z,17.90
2019-06-08T20:57:03.018Z,17.80
2019-06-08T21:01:13.311Z,17.70
2019-06-08T21:05:23.606Z,17.70
2019-06-08T21:09:33.844Z,17.70
2019-06-08T21:13:45.226Z,17.80
2019-06-08T21:17:56.024Z,17.90
2019-06-08T21:22:08.198Z,17.80
2019-06-08T21:26:18.494Z,17.60
2019-06-08T21:30:28.780Z,17.40
2019-06-08T21:34:39.116Z,17.40
2019-06-08T21:38:51.944Z,17.30
2019-06-08T21:43:01.595Z,17.30
2019-06-08T21:47:11.903Z,17.10
2019-06-08T21:51:22.276Z,17.00
2019-06-08T21:55:32.577Z,17.00
2019-06-08T21:59:42.817Z,16.90
2019-06-08T22:03:53.727Z,16.80
2019-06-08T22:08:04.470Z,16.90
2019-06-08T22:12:14.719Z,16.90
2019-06-08T22:16:27.289Z,16.80
2019-06-08T22:20:38.285Z,16.50
2019-06-08T22:24:48.798Z,16.20
2019-06-08T22:29:01.011Z,16.00
2019-06-08T22:33:11.989Z,15.90
2019-06-08T22:37:22.342Z,15.90
2019-06-08T22:41:32.560Z,15.80
2019-06-08T22:45:43.198Z,15.70
2019-06-08T22:49:54.644Z,15.60
2019-06-08T22:54:07.834Z,15.60
2019-06-08T22:58:19.044Z,15.60
2019-06-08T23:02:29.685Z,15.60
2019-06-08T23:06:40.009Z,15.60
2019-06-08T23:10:50.476Z,15.50
2019-06-08T23:15:02.291Z,15.50
2019-06-08T23:19:13.139Z,15.40
2019-06-08T23:23:23.372Z,15.50
2019-06-08T23:27:33.616Z,15.60
2019-06-08T23:31:43.865Z,15.80
2019-06-08T23:36:30.813Z,15.70
2019-06-08T23:40:07.500Z,15.60
2019-06-08T23:44:17.940Z,15.50
2019-06-08T23:48:28.297Z,15.20
2019-06-08T23:52:38.619Z,14.90
2019-06-08T23:56:48.891Z,14.60
